createdAt,value
2018-12-05T00:01:11.162Z,3.40
2018-12-05T00:03:39.511Z,3.40
2018-12-05T00:06:08.636Z,3.40
2018-12-05T00:08:36.955Z,3.30
2018-12-05T00:11:05.416Z,3.30
2018-12-05T00:13:33.797Z,3.30
2018-12-05T00:16:02.279Z,3.20
2018-12-05T00:18:31.312Z,3.30
2018-12-05T00:20:59.655Z,3.30
2018-12-05T00:23:27.977Z,3.30
2018-12-05T00:25:57.014Z,3.20
2018-12-05T00:28:25.388Z,3.20
2018-12-05T00:30:54.257Z,3.30
2018-12-05T00:33:22.768Z,3.30
2018-12-05T00:35:52.002Z,3.20
2018-12-05T00:38:20.341Z,3.30
2018-12-05T00:40:48.674Z,3.20
2018-12-05T00:43:17.004Z,3.20
2018-12-05T00:45:46.057Z,3.30
2018-12-05T00:48:15.113Z,3.30
2018-12-05T00:50:43.872Z,3.30
2018-12-05T00:53:12.321Z,3.20
2018-12-05T00:55:40.678Z,3.20
2018-12-05T00:58:09.348Z,3.20
2018-12-05T01:00:38.188Z,3.20
2018-12-05T01:03:06.498Z,3.20
2018-12-05T01:05:34.880Z,3.10
2018-12-05T01:08:04.471Z,3.10
2018-12-05T01:10:32.897Z,3.10
2018-12-05T01:13:01.604Z,3.10
2018-12-05T01:15:30.196Z,3.10
2018-12-05T01:17:58.653Z,3.10
2018-12-05T01:20:26.973Z,3.10
2018-12-05T01:22:56.099Z,3.10
2018-12-05T01:25:24.768Z,3.10
2018-12-05T01:27:54.062Z,3.10
2018-12-05T01:30:22.598Z,3.10
2018-12-05T01:32:51.073Z,3.10
2018-12-05T01:35:19.600Z,3.00
2018-12-05T01:37:48.346Z,3.00
2018-12-05T01:40:16.668Z,2.90
2018-12-05T01:42:44.981Z,3.00
2018-12-05T01:45:13.608Z,3.00
2018-12-05T01:47:42.023Z,3.00
2018-12-05T01:50:11.036Z,2.90
2018-12-05T01:52:39.392Z,3.00
2018-12-05T01:55:07.785Z,2.90
2018-12-05T01:57:36.220Z,2.90
2018-12-05T02:00:05.845Z,2.90
2018-12-05T02:02:34.301Z,2.90
2018-12-05T02:05:02.815Z,2.90
2018-12-05T02:07:31.262Z,2.90
2018-12-05T02:09:59.575Z,2.90
2018-12-05T02:12:28.052Z,2.80
2018-12-05T02:14:56.975Z,2.80
2018-12-05T02:17:25.447Z,2.80
2018-12-05T04:24:27.270Z,2.70
2018-12-05T04:26:55.641Z,2.70
2018-12-05T04:29:24.107Z,2.70
2018-12-05T04:31:52.413Z,2.70
2018-12-05T04:34:20.676Z,2.70
2018-12-05T04:36:49.099Z,2.70
2018-12-05T04:39:17.480Z,2.70
2018-12-05T04:41:45.835Z,2.70
2018-12-05T04:44:14.136Z,2.70
2018-12-05T04:46:43.173Z,2.70
2018-12-05T04:49:11.810Z,2.70
2018-12-05T04:51:40.076Z,2.70
2018-12-05T04:54:08.365Z,2.80
2018-12-05T04:56:36.626Z,2.80
2018-12-05T04:59:05.126Z,2.70
2018-12-05T05:01:33.543Z,2.70
2018-12-05T05:04:01.843Z,2.70
2018-12-05T05:06:30.225Z,2.80
2018-12-05T05:08:58.528Z,2.80
2018-12-05T05:11:26.857Z,2.80
2018-12-05T05:13:55.296Z,2.80
2018-12-05T05:16:23.849Z,2.70
2018-12-05T05:18:52.112Z,2.60
2018-12-05T05:21:20.404Z,2.60
2018-12-05T05:23:48.675Z,2.60
2018-12-05T05:26:17.023Z,2.60
2018-12-05T05:28:45.413Z,2.50
2018-12-05T05:31:13.837Z,2.50
2018-12-05T05:33:42.134Z,2.50
2018-12-05T05:36:10.399Z,2.50
2018-12-05T05:38:38.736Z,2.50
2018-12-05T05:41:07.153Z,2.40
2018-12-05T05:43:35.490Z,2.40
2018-12-05T05:46:03.840Z,2.40
2018-12-05T05:48:32.130Z,2.40
2018-12-05T05:51:00.428Z,2.30
2018-12-05T05:53:29.473Z,2.40
2018-12-05T05:55:58.256Z,2.30
2018-12-05T05:58:27.246Z,2.30
2018-12-05T06:00:55.662Z,2.30
2018-12-05T06:03:24.061Z,2.30
2018-12-05T06:05:52.338Z,2.30
2018-12-05T06:08:20.747Z,2.30
2018-12-05T06:10:49.397Z,2.30
2018-12-05T06:15:52.325Z,2.30
2018-12-05T06:18:20.758Z,2.30
2018-12-05T06:20:49.414Z,2.30
2018-12-05T06:23:17.692Z,2.30
2018-12-05T06:25:45.989Z,2.30
2018-12-05T06:28:14.312Z,2.30
2018-12-05T06:30:42.661Z,2.30
2018-12-05T06:33:11.297Z,2.30
2018-12-05T06:35:39.620Z,2.30
2018-12-05T06:38:07.934Z,2.30
2018-12-05T06:40:36.303Z,2.30
2018-12-05T06:43:04.669Z,2.30
2018-12-05T06:45:32.960Z,2.30
2018-12-05T06:48:01.285Z,2.30
2018-12-05T06:50:29.662Z,2.30
2018-12-05T06:52:57.959Z,2.30
2018-12-05T06:55:26.253Z,2.30
2018-12-05T06:57:54.682Z,2.30
2018-12-05T07:00:23.057Z,2.40
2018-12-05T07:02:51.414Z,2.30
2018-12-05T07:05:19.936Z,2.30
2018-12-05T07:07:48.301Z,2.40
2018-12-05T07:10:16.744Z,2.40
2018-12-05T07:12:45.189Z,2.40
2018-12-05T07:15:13.472Z,2.40
2018-12-05T07:17:41.782Z,2.40
2018-12-05T07:20:10.493Z,2.40
2018-12-05T07:22:38.848Z,2.40
2018-12-05T07:25:08.093Z,2.40
2018-12-05T07:27:36.596Z,2.50
2018-12-05T07:30:05.391Z,2.40
2018-12-05T07:32:33.945Z,2.50
2018-12-05T07:35:02.251Z,2.50
2018-12-05T07:37:30.582Z,2.50
2018-12-05T07:39:58.954Z,2.50
2018-12-05T07:42:27.394Z,2.50
2018-12-05T07:44:55.868Z,2.60
2018-12-05T07:47:24.183Z,2.50
2018-12-05T07:49:55.078Z,2.50
2018-12-05T07:52:23.580Z,2.50
2018-12-05T07:54:51.929Z,2.60
2018-12-05T07:57:20.733Z,2.60
2018-12-05T07:59:50.001Z,2.70
2018-12-05T08:02:18.429Z,2.70
2018-12-05T08:04:46.778Z,2.70
2018-12-05T08:07:15.073Z,2.70
2018-12-05T08:09:43.838Z,2.80
2018-12-05T08:12:13.969Z,2.80
2018-12-05T08:14:42.315Z,2.80
2018-12-05T08:17:10.692Z,2.90
2018-12-05T08:19:39.008Z,2.80
2018-12-05T08:22:07.305Z,2.80
2018-12-05T08:24:35.729Z,2.90
2018-12-05T08:27:04.209Z,3.00
2018-12-05T08:29:32.578Z,3.00
2018-12-05T08:32:01.382Z,3.00
2018-12-05T08:34:29.707Z,3.10
2018-12-05T08:36:58.029Z,3.10
2018-12-05T08:39:27.064Z,3.20
2018-12-05T08:41:55.392Z,3.20
2018-12-05T08:44:23.861Z,3.20
2018-12-05T08:46:52.233Z,3.30
2018-12-05T08:49:20.537Z,3.40
2018-12-05T08:51:48.986Z,3.40
2018-12-05T08:54:21.101Z,3.40
2018-12-05T08:56:47.788Z,3.50
2018-12-05T08:59:16.139Z,3.50
2018-12-05T09:01:44.587Z,3.60
2018-12-05T09:04:12.947Z,3.70
2018-12-05T09:06:41.387Z,3.80
2018-12-05T09:09:09.804Z,3.70
2018-12-05T09:11:38.182Z,3.80
2018-12-05T09:14:06.516Z,3.80
2018-12-05T09:16:36.163Z,3.90
2018-12-05T09:19:05.643Z,3.90
2018-12-05T09:21:34.471Z,4.00
2018-12-05T09:24:02.772Z,4.10
2018-12-05T09:26:31.179Z,4.00
2018-12-05T09:28:59.529Z,4.10
2018-12-05T09:31:28.469Z,4.20
2018-12-05T09:33:56.796Z,4.30
2018-12-05T09:36:25.097Z,4.30
2018-12-05T09:38:53.448Z,4.40
2018-12-05T09:41:21.799Z,4.50
2018-12-05T09:43:51.125Z,4.50
2018-12-05T09:46:19.565Z,4.50
2018-12-05T09:48:48.465Z,4.60
2018-12-05T09:51:17.298Z,4.60
2018-12-05T09:53:46.061Z,4.70
2018-12-05T09:56:14.728Z,4.80
2018-12-05T09:58:43.059Z,4.80
2018-12-05T10:01:12.026Z,4.90
2018-12-05T10:03:40.367Z,4.90
2018-12-05T10:06:08.737Z,5.00
2018-12-05T10:08:37.082Z,5.00
2018-12-05T10:11:05.385Z,5.10
2018-12-05T10:13:33.869Z,5.10
2018-12-05T10:16:02.173Z,5.20
2018-12-05T10:18:30.492Z,5.30
2018-12-05T10:20:58.871Z,5.40
2018-12-05T10:23:27.243Z,5.50
2018-12-05T10:25:56.715Z,5.50
2018-12-05T10:28:25.359Z,5.60
2018-12-05T10:30:53.731Z,5.60
2018-12-05T10:33:22.227Z,5.60
2018-12-05T10:35:50.570Z,5.70
2018-12-05T10:38:18.983Z,5.70
2018-12-05T10:40:47.356Z,5.80
2018-12-05T10:43:15.708Z,5.90
2018-12-05T10:45:44.562Z,5.90
2018-12-05T10:48:13.046Z,5.90
2018-12-05T10:50:41.387Z,6.00
2018-12-05T10:53:09.785Z,6.10
2018-12-05T10:55:38.173Z,6.00
2018-12-05T10:58:06.541Z,6.10
2018-12-05T11:00:40.613Z,6.10
2018-12-05T11:03:19.766Z,6.20
2018-12-05T11:05:53.691Z,6.20
2018-12-05T11:08:28.081Z,6.20
2018-12-05T11:11:02.142Z,6.30
2018-12-05T11:13:36.014Z,6.30
2018-12-05T11:16:12.941Z,6.30
2018-12-05T11:18:46.742Z,6.30
2018-12-05T11:21:20.652Z,6.20
2018-12-05T11:23:54.349Z,6.30
2018-12-05T11:26:25.370Z,6.30
2018-12-05T11:28:53.737Z,6.30
2018-12-05T11:31:22.715Z,6.40
2018-12-05T11:33:51.746Z,6.40
2018-12-05T11:36:21.548Z,6.30
2018-12-05T11:38:49.900Z,6.30
2018-12-05T11:41:18.381Z,6.30
2018-12-05T11:43:46.688Z,6.40
2018-12-05T11:46:15.056Z,6.30
2018-12-05T11:48:43.503Z,6.30
2018-12-05T11:51:11.814Z,6.30
2018-12-05T11:53:40.109Z,6.40
2018-12-05T11:56:09.485Z,6.40
2018-12-05T11:58:37.884Z,6.30
2018-12-05T12:01:06.967Z,6.40
2018-12-05T12:03:35.288Z,6.40
2018-12-05T12:06:04.449Z,6.40
2018-12-05T12:08:32.951Z,6.40
2018-12-05T12:11:03.549Z,6.50
2018-12-05T12:13:32.035Z,6.40
2018-12-05T12:16:00.358Z,6.40
2018-12-05T12:18:29.305Z,6.40
2018-12-05T12:20:57.704Z,6.40
2018-12-05T12:23:26.872Z,6.40
2018-12-05T12:25:55.487Z,6.40
2018-12-05T12:28:24.078Z,6.40
2018-12-05T12:30:52.445Z,6.40
2018-12-05T12:33:20.836Z,6.50
2018-12-05T12:35:49.233Z,6.40
2018-12-05T12:38:17.621Z,6.50
2018-12-05T12:40:45.961Z,6.40
2018-12-05T12:43:18.287Z,6.40
2018-12-05T12:45:47.140Z,6.50
2018-12-05T12:48:16.465Z,6.50
2018-12-05T12:50:44.788Z,6.50
2018-12-05T12:53:13.609Z,6.50
2018-12-05T12:55:42.160Z,6.50
2018-12-05T12:58:10.492Z,6.50
2018-12-05T13:00:39.447Z,6.60
2018-12-05T13:03:07.834Z,6.50
2018-12-05T13:05:37.722Z,6.60
2018-12-05T13:08:06.565Z,6.50
2018-12-05T13:10:36.142Z,6.50
2018-12-05T13:13:06.374Z,6.50
2018-12-05T13:15:36.203Z,6.50
2018-12-05T13:18:05.713Z,6.60
2018-12-05T13:20:35.388Z,6.80
2018-12-05T13:23:04.662Z,7.30
2018-12-05T13:25:34.239Z,8.00
2018-12-05T13:28:03.201Z,8.40
2018-12-05T13:30:33.487Z,8.70
2018-12-05T13:33:01.916Z,9.00
2018-12-05T13:35:30.421Z,9.40
2018-12-05T13:37:58.953Z,9.70
2018-12-05T13:40:27.948Z,9.70
2018-12-05T13:42:56.317Z,9.50
2018-12-05T13:45:25.637Z,9.60
2018-12-05T13:47:54.206Z,9.10
2018-12-05T13:50:22.645Z,8.50
2018-12-05T13:52:51.092Z,7.90
2018-12-05T13:55:23.430Z,7.50
2018-12-05T13:57:53.376Z,7.30
2018-12-05T14:00:21.706Z,7.10
2018-12-05T14:02:50.055Z,7.00
2018-12-05T14:05:18.361Z,6.80
2018-12-05T14:07:47.259Z,6.70
2018-12-05T14:10:16.114Z,6.60
2018-12-05T14:12:44.544Z,6.50
2018-12-05T14:15:14.006Z,6.40
2018-12-05T14:17:42.365Z,6.40
2018-12-05T14:20:11.563Z,6.30
2018-12-05T14:22:40.826Z,6.20
2018-12-05T14:25:09.435Z,6.10
2018-12-05T14:27:37.767Z,6.00
2018-12-05T14:30:08.522Z,6.00
2018-12-05T14:32:37.221Z,5.90
2018-12-05T14:35:06.266Z,5.80
2018-12-05T14:37:34.565Z,5.80
2018-12-05T14:40:02.845Z,5.70
2018-12-05T14:42:31.134Z,5.70
2018-12-05T14:44:59.449Z,5.60
2018-12-05T14:47:27.841Z,5.50
2018-12-05T14:49:56.157Z,5.50
2018-12-05T14:52:24.473Z,5.40
2018-12-05T14:54:53.189Z,5.40
2018-12-05T14:57:21.596Z,5.40
2018-12-05T14:59:49.901Z,5.30
2018-12-05T15:02:18.168Z,5.30
2018-12-05T15:04:46.464Z,5.30
2018-12-05T15:07:14.754Z,5.20
2018-12-05T15:09:44.076Z,5.10
2018-12-05T15:12:12.380Z,5.10
2018-12-05T15:14:40.649Z,5.00
2018-12-05T15:17:08.931Z,4.90
2018-12-05T15:19:37.253Z,4.90
2018-12-05T15:22:05.788Z,4.90
2018-12-05T15:24:34.172Z,4.90
2018-12-05T15:27:03.151Z,4.80
2018-12-05T15:29:31.838Z,4.80
2018-12-05T15:32:00.779Z,4.70
2018-12-05T15:34:29.072Z,4.70
2018-12-05T15:36:57.372Z,4.60
2018-12-05T15:39:25.675Z,4.60
2018-12-05T15:41:53.987Z,4.60
2018-12-05T15:44:22.346Z,4.50
2018-12-05T15:46:50.759Z,4.50
2018-12-05T15:49:19.105Z,4.40
2018-12-05T15:51:47.368Z,4.40
2018-12-05T15:54:15.688Z,4.40
2018-12-05T15:56:43.998Z,4.30
2018-12-05T15:59:13.222Z,4.30
2018-12-05T16:01:41.521Z,4.30
2018-12-05T16:04:09.965Z,4.30
2018-12-05T16:06:38.276Z,4.30
2018-12-05T16:09:07.795Z,4.20
2018-12-05T16:11:36.157Z,4.20
2018-12-05T16:14:04.589Z,4.20
2018-12-05T16:16:33.025Z,4.20
2018-12-05T16:19:01.709Z,4.10
2018-12-05T16:21:30.054Z,4.10
2018-12-05T16:23:58.407Z,4.10
2018-12-05T16:26:26.924Z,4.10
2018-12-05T16:28:55.385Z,4.00
2018-12-05T16:31:23.712Z,4.00
2018-12-05T16:33:53.102Z,4.00
2018-12-05T16:36:21.540Z,4.00
2018-12-05T16:38:49.967Z,4.00
2018-12-05T16:41:18.381Z,4.00
2018-12-05T16:43:46.961Z,3.90
2018-12-05T16:46:15.359Z,3.90
2018-12-05T16:48:43.773Z,3.80
2018-12-05T16:51:12.122Z,3.80
2018-12-05T16:53:40.549Z,3.70
2018-12-05T16:56:09.441Z,3.70
2018-12-05T16:58:38.896Z,3.70
2018-12-05T17:01:07.216Z,3.70
2018-12-05T17:03:35.642Z,3.60
2018-12-05T17:06:04.220Z,3.60
2018-12-05T17:08:33.288Z,3.60
2018-12-05T17:11:01.574Z,3.60
2018-12-05T17:13:30.659Z,3.60
2018-12-05T17:15:59.573Z,3.50
2018-12-05T17:18:28.226Z,3.50
2018-12-05T17:20:56.680Z,3.50
2018-12-05T17:23:25.219Z,3.40
2018-12-05T17:25:54.115Z,3.40
2018-12-05T17:28:23.241Z,3.40
2018-12-05T17:30:51.573Z,3.40
2018-12-05T17:33:19.914Z,3.40
2018-12-05T17:35:48.474Z,3.30
2018-12-05T17:38:17.003Z,3.30
2018-12-05T17:40:45.421Z,3.30
2018-12-05T17:43:13.741Z,3.20
2018-12-05T17:45:42.100Z,3.20
2018-12-05T17:48:10.398Z,3.20
2018-12-05T17:50:38.883Z,3.20
2018-12-05T17:53:07.225Z,3.10
2018-12-05T17:55:36.416Z,3.10
2018-12-05T17:58:05.075Z,3.10
2018-12-05T18:00:33.435Z,3.00
2018-12-05T18:03:02.009Z,3.00
2018-12-05T18:05:30.726Z,3.10
2018-12-05T18:07:59.076Z,3.10
2018-12-05T18:10:27.729Z,3.00
2018-12-05T18:12:56.062Z,3.00
2018-12-05T18:15:24.631Z,3.00
2018-12-05T18:17:54.027Z,2.90
2018-12-05T18:20:22.496Z,2.90
2018-12-05T18:22:50.914Z,2.90
2018-12-05T18:25:19.672Z,2.90
2018-12-05T18:27:48.877Z,2.80
2018-12-05T18:30:17.637Z,2.80
2018-12-05T18:32:46.048Z,2.80
2018-12-05T18:35:14.503Z,2.70
2018-12-05T18:37:43.144Z,2.60
2018-12-05T18:40:11.727Z,2.70
2018-12-05T18:42:40.788Z,2.60
2018-12-05T18:45:10.945Z,2.60
2018-12-05T18:47:39.654Z,2.50
2018-12-05T18:50:08.695Z,2.50
2018-12-05T18:52:37.579Z,2.50
2018-12-05T18:55:06.913Z,2.50
2018-12-05T18:57:36.019Z,2.40
2018-12-05T19:00:06.190Z,2.40
2018-12-05T19:02:35.313Z,2.40
2018-12-05T19:05:06.130Z,2.40
2018-12-05T19:07:34.543Z,2.40
2018-12-05T19:10:03.046Z,2.40
2018-12-05T19:12:31.858Z,2.40
2018-12-05T19:15:01.149Z,2.40
2018-12-05T19:17:30.061Z,2.40
2018-12-05T19:19:58.720Z,2.40
2018-12-05T19:22:27.098Z,2.40
2018-12-05T19:24:55.521Z,2.40
2018-12-05T19:27:24.604Z,2.40
2018-12-05T19:29:54.039Z,2.40
2018-12-05T19:32:22.765Z,2.30
2018-12-05T19:34:51.907Z,2.40
2018-12-05T19:37:21.738Z,2.40
2018-12-05T19:39:51.539Z,2.40
2018-12-05T19:42:20.541Z,2.40
2018-12-05T19:44:49.655Z,2.40
2018-12-05T19:47:18.546Z,2.40
2018-12-05T19:49:48.291Z,2.40
2018-12-05T19:52:16.884Z,2.40
2018-12-05T19:54:46.365Z,2.40
2018-12-05T19:57:16.486Z,2.30
2018-12-05T19:59:46.119Z,2.30
2018-12-05T20:02:15.522Z,2.30
2018-12-05T20:04:44.086Z,2.30
2018-12-05T20:07:12.936Z,2.30
2018-12-05T20:09:42.379Z,2.30
2018-12-05T20:12:11.909Z,2.30
2018-12-05T20:14:40.855Z,2.30
2018-12-05T20:17:10.771Z,2.30
2018-12-05T20:19:41.109Z,2.30
2018-12-05T20:22:10.512Z,2.30
2018-12-05T20:24:39.015Z,2.30
2018-12-05T20:27:07.505Z,2.30
2018-12-05T20:29:39.963Z,2.20
2018-12-05T20:32:10.153Z,2.20
2018-12-05T20:34:39.135Z,2.20
2018-12-05T20:37:08.210Z,2.20
2018-12-05T20:39:36.566Z,2.20
2018-12-05T20:42:06.341Z,2.20
2018-12-05T20:44:35.856Z,2.20
2018-12-05T20:47:04.985Z,2.20
2018-12-05T20:49:33.556Z,2.20
2018-12-05T20:52:07.952Z,2.20
2018-12-05T20:54:36.527Z,2.20
2018-12-05T20:57:13.613Z,2.20
2018-12-05T20:59:47.132Z,2.20
2018-12-05T21:02:16.708Z,2.20
2018-12-05T21:04:47.673Z,2.30
2018-12-05T21:07:21.103Z,2.30
2018-12-05T21:09:50.524Z,2.40
2018-12-05T21:15:42.591Z,2.40
2018-12-05T21:18:11.298Z,2.40
2018-12-05T21:20:41.711Z,2.40
2018-12-05T21:23:15.002Z,2.50
2018-12-05T21:25:43.486Z,2.50
2018-12-05T21:28:12.655Z,2.50
2018-12-05T21:30:42.089Z,2.50
2018-12-05T21:33:10.797Z,2.50
2018-12-05T21:35:46.492Z,2.50
2018-12-05T21:38:14.923Z,2.50
2018-12-05T21:40:45.733Z,2.50
2018-12-05T21:43:14.634Z,2.60
2018-12-05T21:45:43.241Z,2.60
2018-12-05T21:48:11.688Z,2.50
2018-12-05T21:50:40.594Z,2.60
2018-12-05T21:53:09.542Z,2.60
2018-12-05T21:55:39.038Z,2.60
2018-12-05T21:58:07.858Z,2.60
2018-12-05T22:00:36.230Z,2.60
2018-12-05T22:03:05.449Z,2.60
2018-12-05T22:05:37.404Z,2.60
2018-12-05T22:08:05.772Z,2.60
2018-12-05T22:10:34.097Z,2.70
2018-12-05T22:13:02.720Z,2.70
2018-12-05T22:15:31.087Z,2.70
2018-12-05T22:17:59.749Z,2.70
2018-12-05T22:20:29.701Z,2.70
2018-12-05T22:22:58.351Z,2.70
2018-12-05T22:25:26.730Z,2.80
2018-12-05T22:27:55.075Z,2.80
2018-12-05T22:30:23.477Z,2.80
2018-12-05T22:32:52.263Z,2.80
2018-12-05T22:35:21.622Z,2.80
2018-12-05T22:37:49.944Z,2.80
2018-12-05T22:40:18.350Z,2.90
2018-12-05T22:42:47.357Z,2.80
2018-12-05T22:45:15.864Z,2.80
2018-12-05T22:47:44.252Z,2.80
2018-12-05T22:50:13.184Z,2.90
2018-12-05T22:52:42.199Z,2.80
2018-12-05T22:55:10.557Z,2.80
2018-12-05T22:57:38.899Z,2.90
2018-12-05T23:00:13.588Z,2.80
2018-12-05T23:02:41.937Z,2.80
2018-12-05T23:05:10.276Z,2.80
2018-12-05T23:07:39.432Z,2.80
2018-12-05T23:10:07.975Z,2.80
2018-12-05T23:12:37.378Z,2.80
2018-12-05T23:15:05.936Z,2.80
2018-12-05T23:17:34.275Z,2.80
2018-12-05T23:20:02.661Z,2.80
2018-12-05T23:22:31.084Z,2.90
2018-12-05T23:24:59.432Z,2.90
2018-12-05T23:27:28.584Z,2.90
2018-12-05T23:29:57.218Z,2.90
2018-12-05T23:32:25.628Z,2.90
2018-12-05T23:34:53.921Z,2.90
2018-12-05T23:37:23.352Z,3.00
2018-12-05T23:39:51.757Z,3.00
2018-12-05T23:42:20.390Z,3.00
2018-12-05T23:44:48.757Z,3.00
2018-12-05T23:47:17.234Z,2.90
2018-12-05T23:49:45.656Z,3.00
2018-12-05T23:52:13.985Z,3.00
2018-12-05T23:54:42.380Z,2.90
2018-12-05T23:57:10.717Z,3.00
2018-12-05T23:59:39.146Z,2.90
